<?xml version="1.0" encoding="UTF-8" standalone="no" ?>
<gpx xmlns="http://www.topografix.com/GPX/1/1" xmlns:xsi="http://www.w3.org/2001/XMLSchema-instance" xsi:schemaLocation="http://www.topografix.com/GPX/1/1 http://www.topografix.com/GPX/1/1/gpx.xsd" version="1.1" creator="VisuGPX - https://www.visugpx.com">
  <metadata>
    <name>VTT au bois de Gourdon</name>
    <desc><![CDATA[Boucle VTT au bois de gourdon avec depart Bar-sur-Loup]]></desc>
  </metadata>
  <trk>
    <name><![CDATA[BOISGOURDON]]></name>
    <trkseg>
      <trkpt lat="43.696" lon="6.9946">
        <ele>133</ele>
        <time>2009-02-17T06:12:07Z</time>
      </trkpt>
      <trkpt lat="43.69597" lon="6.99636">
        <ele>115</ele>
        <time>2009-02-17T06:15:38Z</time>
      </trkpt>
      <trkpt lat="43.69627" lon="6.99767">
        <ele>106</ele>
        <time>2009-02-17T06:15:52Z</time>
      </trkpt>
      <trkpt lat="43.69677" lon="6.9987">
        <ele>108</ele>
        <time>2009-02-17T06:16:05Z</time>
      </trkpt>
      <trkpt lat="43.69763" lon="6.99874">
        <ele>111</ele>
        <time>2009-02-17T06:16:26Z</time>
      </trkpt>
      <trkpt lat="43.69846" lon="6.99818">
        <ele>119</ele>
        <time>2009-02-17T06:17:03Z</time>
      </trkpt>
      <trkpt lat="43.69926" lon="6.99765">
        <ele>157</ele>
        <time>2009-02-17T06:18:07Z</time>
      </trkpt>
      <trkpt lat="43.69982" lon="6.99715">
        <ele>181</ele>
        <time>2009-02-17T06:19:47Z</time>
      </trkpt>
      <trkpt lat="43.70024" lon="6.9961">
        <ele>197</ele>
        <time>2009-02-17T06:21:05Z</time>
      </trkpt>
      <trkpt lat="43.70044" lon="6.99494">
        <ele>214</ele>
        <time>2009-02-17T06:22:19Z</time>
      </trkpt>
      <trkpt lat="43.70059" lon="6.99376">
        <ele>229</ele>
        <time>2009-02-17T06:23:35Z</time>
      </trkpt>
      <trkpt lat="43.70057" lon="6.99254">
        <ele>250</ele>
        <time>2009-02-17T06:24:58Z</time>
      </trkpt>
      <trkpt lat="43.7005" lon="6.99151">
        <ele>268</ele>
        <time>2009-02-17T06:26:29Z</time>
      </trkpt>
      <trkpt lat="43.70037" lon="6.9905">
        <ele>280</ele>
        <time>2009-02-17T06:27:34Z</time>
      </trkpt>
      <trkpt lat="43.69997" lon="6.98943">
        <ele>289</ele>
        <time>2009-02-17T06:28:28Z</time>
      </trkpt>
      <trkpt lat="43.7008" lon="6.98964">
        <ele>303</ele>
        <time>2009-02-17T06:29:26Z</time>
      </trkpt>
      <trkpt lat="43.7011" lon="6.98962">
        <ele>308</ele>
        <time>2009-02-17T06:29:58Z</time>
      </trkpt>
      <trkpt lat="43.70065" lon="6.98904">
        <ele>309</ele>
        <time>2009-02-17T06:30:02Z</time>
      </trkpt>
      <trkpt lat="43.70046" lon="6.98788">
        <ele>318</ele>
        <time>2009-02-17T06:30:55Z</time>
      </trkpt>
      <trkpt lat="43.70001" lon="6.98683">
        <ele>320</ele>
        <time>2009-02-17T06:31:35Z</time>
      </trkpt>
      <trkpt lat="43.69964" lon="6.98572">
        <ele>328</ele>
        <time>2009-02-17T06:32:10Z</time>
      </trkpt>
      <trkpt lat="43.69909" lon="6.98473">
        <ele>334</ele>
        <time>2009-02-17T06:32:59Z</time>
      </trkpt>
      <trkpt lat="43.69909" lon="6.98368">
        <ele>340</ele>
        <time>2009-02-17T06:33:50Z</time>
      </trkpt>
      <trkpt lat="43.69924" lon="6.9825">
        <ele>355</ele>
        <time>2009-02-17T06:35:03Z</time>
      </trkpt>
      <trkpt lat="43.69984" lon="6.98164">
        <ele>374</ele>
        <time>2009-02-17T06:36:16Z</time>
      </trkpt>
      <trkpt lat="43.70027" lon="6.98063">
        <ele>383</ele>
        <time>2009-02-17T06:37:18Z</time>
      </trkpt>
      <trkpt lat="43.7002" lon="6.97928">
        <ele>396</ele>
        <time>2009-02-17T06:38:23Z</time>
      </trkpt>
      <trkpt lat="43.70029" lon="6.97791">
        <ele>414</ele>
        <time>2009-02-17T06:39:38Z</time>
      </trkpt>
      <trkpt lat="43.70035" lon="6.9769">
        <ele>426</ele>
        <time>2009-02-17T06:40:42Z</time>
      </trkpt>
      <trkpt lat="43.70048" lon="6.97559">
        <ele>449</ele>
        <time>2009-02-17T06:42:45Z</time>
      </trkpt>
      <trkpt lat="43.70089" lon="6.97477">
        <ele>467</ele>
        <time>2009-02-17T06:44:47Z</time>
      </trkpt>
      <trkpt lat="43.70142" lon="6.97413">
        <ele>489</ele>
        <time>2009-02-17T06:46:50Z</time>
      </trkpt>
      <trkpt lat="43.702" lon="6.97299">
        <ele>513</ele>
        <time>2009-02-17T06:49:43Z</time>
      </trkpt>
      <trkpt lat="43.7022" lon="6.97175">
        <ele>524</ele>
        <time>2009-02-17T06:50:54Z</time>
      </trkpt>
      <trkpt lat="43.70237" lon="6.97286">
        <ele>540</ele>
        <time>2009-02-17T06:52:02Z</time>
      </trkpt>
      <trkpt lat="43.70254" lon="6.97166">
        <ele>554</ele>
        <time>2009-02-17T06:53:08Z</time>
      </trkpt>
      <trkpt lat="43.70273" lon="6.97248">
        <ele>566</ele>
        <time>2009-02-17T06:54:16Z</time>
      </trkpt>
      <trkpt lat="43.7028" lon="6.97117">
        <ele>572</ele>
        <time>2009-02-17T06:55:02Z</time>
      </trkpt>
      <trkpt lat="43.70275" lon="6.96986">
        <ele>585</ele>
        <time>2009-02-17T06:56:01Z</time>
      </trkpt>
      <trkpt lat="43.70269" lon="6.96846">
        <ele>594</ele>
        <time>2009-02-17T06:56:59Z</time>
      </trkpt>
      <trkpt lat="43.70291" lon="6.96724">
        <ele>601</ele>
        <time>2009-02-17T06:57:49Z</time>
      </trkpt>
      <trkpt lat="43.70258" lon="6.96595">
        <ele>601</ele>
        <time>2009-02-17T06:58:23Z</time>
      </trkpt>
      <trkpt lat="43.7023" lon="6.96465">
        <ele>599</ele>
        <time>2009-02-17T06:58:43Z</time>
      </trkpt>
      <trkpt lat="43.70196" lon="6.96342">
        <ele>605</ele>
        <time>2009-02-17T06:59:13Z</time>
      </trkpt>
      <trkpt lat="43.70147" lon="6.96233">
        <ele>612</ele>
        <time>2009-02-17T06:59:53Z</time>
      </trkpt>
      <trkpt lat="43.70074" lon="6.96153">
        <ele>621</ele>
        <time>2009-02-17T07:00:43Z</time>
      </trkpt>
      <trkpt lat="43.70119" lon="6.96168">
        <ele>626</ele>
        <time>2009-02-17T07:01:26Z</time>
      </trkpt>
      <trkpt lat="43.70198" lon="6.96231">
        <ele>628</ele>
        <time>2009-02-17T07:01:52Z</time>
      </trkpt>
      <trkpt lat="43.70252" lon="6.96334">
        <ele>631</ele>
        <time>2009-02-17T07:02:18Z</time>
      </trkpt>
      <trkpt lat="43.70293" lon="6.96447">
        <ele>634</ele>
        <time>2009-02-17T07:02:43Z</time>
      </trkpt>
      <trkpt lat="43.70314" lon="6.96568">
        <ele>635</ele>
        <time>2009-02-17T07:03:07Z</time>
      </trkpt>
      <trkpt lat="43.70336" lon="6.9669">
        <ele>639</ele>
        <time>2009-02-17T07:03:31Z</time>
      </trkpt>
      <trkpt lat="43.70348" lon="6.96816">
        <ele>642</ele>
        <time>2009-02-17T07:03:56Z</time>
      </trkpt>
      <trkpt lat="43.70366" lon="6.96941">
        <ele>645</ele>
        <time>2009-02-17T07:04:21Z</time>
      </trkpt>
      <trkpt lat="43.704" lon="6.97052">
        <ele>648</ele>
        <time>2009-02-17T07:04:46Z</time>
      </trkpt>
      <trkpt lat="43.70475" lon="6.97134">
        <ele>650</ele>
        <time>2009-02-17T07:05:12Z</time>
      </trkpt>
      <trkpt lat="43.70565" lon="6.97173">
        <ele>653</ele>
        <time>2009-02-17T07:05:37Z</time>
      </trkpt>
      <trkpt lat="43.70657" lon="6.97181">
        <ele>656</ele>
        <time>2009-02-17T07:06:02Z</time>
      </trkpt>
      <trkpt lat="43.70739" lon="6.97243">
        <ele>659</ele>
        <time>2009-02-17T07:06:27Z</time>
      </trkpt>
      <trkpt lat="43.7078" lon="6.97353">
        <ele>663</ele>
        <time>2009-02-17T07:06:55Z</time>
      </trkpt>
      <trkpt lat="43.70816" lon="6.97278">
        <ele>673</ele>
        <time>2009-02-17T07:07:53Z</time>
      </trkpt>
      <trkpt lat="43.70883" lon="6.97192">
        <ele>684</ele>
        <time>2009-02-17T07:08:44Z</time>
      </trkpt>
      <trkpt lat="43.70926" lon="6.97078">
        <ele>693</ele>
        <time>2009-02-17T07:09:36Z</time>
      </trkpt>
      <trkpt lat="43.7096" lon="6.96965">
        <ele>700</ele>
        <time>2009-02-17T07:10:23Z</time>
      </trkpt>
      <trkpt lat="43.71001" lon="6.96941">
        <ele>705</ele>
        <time>2009-02-17T07:11:06Z</time>
      </trkpt>
      <trkpt lat="43.71076" lon="6.96995">
        <ele>712</ele>
        <time>2009-02-17T07:11:52Z</time>
      </trkpt>
      <trkpt lat="43.71093" lon="6.96892">
        <ele>726</ele>
        <time>2009-02-17T07:13:00Z</time>
      </trkpt>
      <trkpt lat="43.71149" lon="6.96804">
        <ele>744</ele>
        <time>2009-02-17T07:14:18Z</time>
      </trkpt>
      <trkpt lat="43.71145" lon="6.96677">
        <ele>757</ele>
        <time>2009-02-17T07:15:22Z</time>
      </trkpt>
      <trkpt lat="43.71136" lon="6.9655">
        <ele>764</ele>
        <time>2009-02-17T07:16:27Z</time>
      </trkpt>
      <trkpt lat="43.71114" lon="6.96419">
        <ele>771</ele>
        <time>2009-02-17T07:20:55Z</time>
      </trkpt>
      <trkpt lat="43.71046" lon="6.96351">
        <ele>774</ele>
        <time>2009-02-17T07:21:33Z</time>
      </trkpt>
      <trkpt lat="43.7102" lon="6.96231">
        <ele>784</ele>
        <time>2009-02-17T07:22:27Z</time>
      </trkpt>
      <trkpt lat="43.70964" lon="6.96113">
        <ele>798</ele>
        <time>2009-02-17T07:23:46Z</time>
      </trkpt>
      <trkpt lat="43.70947" lon="6.95973">
        <ele>805</ele>
        <time>2009-02-17T07:24:59Z</time>
      </trkpt>
      <trkpt lat="43.70866" lon="6.95874">
        <ele>810</ele>
        <time>2009-02-17T07:25:40Z</time>
      </trkpt>
      <trkpt lat="43.70827" lon="6.95782">
        <ele>815</ele>
        <time>2009-02-17T07:26:24Z</time>
      </trkpt>
      <trkpt lat="43.70833" lon="6.95681">
        <ele>834</ele>
        <time>2009-02-17T07:27:36Z</time>
      </trkpt>
      <trkpt lat="43.7084" lon="6.95557">
        <ele>843</ele>
        <time>2009-02-17T07:28:38Z</time>
      </trkpt>
      <trkpt lat="43.70866" lon="6.95467">
        <ele>853</ele>
        <time>2009-02-17T07:32:04Z</time>
      </trkpt>
      <trkpt lat="43.70872" lon="6.95471">
        <ele>854</ele>
        <time>2009-02-17T07:34:05Z</time>
      </trkpt>
      <trkpt lat="43.70949" lon="6.95447">
        <ele>871</ele>
        <time>2009-02-17T07:35:43Z</time>
      </trkpt>
      <trkpt lat="43.71029" lon="6.95402">
        <ele>886</ele>
        <time>2009-02-17T07:37:17Z</time>
      </trkpt>
      <trkpt lat="43.7111" lon="6.95396">
        <ele>903</ele>
        <time>2009-02-17T07:38:52Z</time>
      </trkpt>
      <trkpt lat="43.71179" lon="6.95327">
        <ele>922</ele>
        <time>2009-02-17T07:40:38Z</time>
      </trkpt>
      <trkpt lat="43.71263" lon="6.95291">
        <ele>931</ele>
        <time>2009-02-17T07:41:59Z</time>
      </trkpt>
      <trkpt lat="43.71338" lon="6.95235">
        <ele>944</ele>
        <time>2009-02-17T07:43:31Z</time>
      </trkpt>
      <trkpt lat="43.71415" lon="6.95181">
        <ele>959</ele>
        <time>2009-02-17T07:45:05Z</time>
      </trkpt>
      <trkpt lat="43.71505" lon="6.95188">
        <ele>972</ele>
        <time>2009-02-17T07:46:29Z</time>
      </trkpt>
      <trkpt lat="43.71589" lon="6.95156">
        <ele>981</ele>
        <time>2009-02-17T07:48:06Z</time>
      </trkpt>
      <trkpt lat="43.71647" lon="6.95061">
        <ele>983</ele>
        <time>2009-02-17T07:49:11Z</time>
      </trkpt>
      <trkpt lat="43.71668" lon="6.94956">
        <ele>981</ele>
        <time>2009-02-17T07:49:52Z</time>
      </trkpt>
      <trkpt lat="43.71713" lon="6.94855">
        <ele>987</ele>
        <time>2009-02-17T07:50:50Z</time>
      </trkpt>
      <trkpt lat="43.71767" lon="6.94952">
        <ele>972</ele>
        <time>2009-02-17T07:52:11Z</time>
      </trkpt>
      <trkpt lat="43.7182" lon="6.94997">
        <ele>966</ele>
        <time>2009-02-17T08:00:33Z</time>
      </trkpt>
      <trkpt lat="43.71876" lon="6.95091">
        <ele>950</ele>
        <time>2009-02-17T08:01:57Z</time>
      </trkpt>
      <trkpt lat="43.71921" lon="6.9519">
        <ele>933</ele>
        <time>2009-02-17T08:02:20Z</time>
      </trkpt>
      <trkpt lat="43.72011" lon="6.95222">
        <ele>927</ele>
        <time>2009-02-17T08:02:34Z</time>
      </trkpt>
      <trkpt lat="43.72078" lon="6.95267">
        <ele>918</ele>
        <time>2009-02-17T08:03:45Z</time>
      </trkpt>
      <trkpt lat="43.72155" lon="6.95293">
        <ele>912</ele>
        <time>2009-02-17T08:04:23Z</time>
      </trkpt>
      <trkpt lat="43.722" lon="6.954">
        <ele>895</ele>
        <time>2009-02-17T08:05:00Z</time>
      </trkpt>
      <trkpt lat="43.72254" lon="6.95495">
        <ele>879</ele>
        <time>2009-02-17T08:05:28Z</time>
      </trkpt>
      <trkpt lat="43.7228" lon="6.95602">
        <ele>867</ele>
        <time>2009-02-17T08:06:03Z</time>
      </trkpt>
      <trkpt lat="43.72327" lon="6.95696">
        <ele>846</ele>
        <time>2009-02-17T08:06:33Z</time>
      </trkpt>
      <trkpt lat="43.72338" lon="6.95819">
        <ele>827</ele>
        <time>2009-02-17T08:07:09Z</time>
      </trkpt>
      <trkpt lat="43.7229" lon="6.95924">
        <ele>804</ele>
        <time>2009-02-17T08:07:42Z</time>
      </trkpt>
      <trkpt lat="43.72237" lon="6.96031">
        <ele>786</ele>
        <time>2009-02-17T08:08:11Z</time>
      </trkpt>
      <trkpt lat="43.72254" lon="6.96151">
        <ele>772</ele>
        <time>2009-02-17T08:08:33Z</time>
      </trkpt>
      <trkpt lat="43.72235" lon="6.9628">
        <ele>766</ele>
        <time>2009-02-17T08:08:53Z</time>
      </trkpt>
      <trkpt lat="43.72196" lon="6.96392">
        <ele>763</ele>
        <time>2009-02-17T08:10:07Z</time>
      </trkpt>
      <trkpt lat="43.72183" lon="6.96492">
        <ele>760</ele>
        <time>2009-02-17T08:11:18Z</time>
      </trkpt>
      <trkpt lat="43.72097" lon="6.96548">
        <ele>763</ele>
        <time>2009-02-17T08:11:50Z</time>
      </trkpt>
      <trkpt lat="43.72052" lon="6.96471">
        <ele>754</ele>
        <time>2009-02-17T08:12:08Z</time>
      </trkpt>
      <trkpt lat="43.72029" lon="6.96349">
        <ele>759</ele>
        <time>2009-02-17T08:12:26Z</time>
      </trkpt>
      <trkpt lat="43.72007" lon="6.96229">
        <ele>768</ele>
        <time>2009-02-17T08:13:16Z</time>
      </trkpt>
      <trkpt lat="43.71934" lon="6.96175">
        <ele>761</ele>
        <time>2009-02-17T08:13:45Z</time>
      </trkpt>
      <trkpt lat="43.71844" lon="6.96211">
        <ele>763</ele>
        <time>2009-02-17T08:14:03Z</time>
      </trkpt>
      <trkpt lat="43.71795" lon="6.96319">
        <ele>766</ele>
        <time>2009-02-17T08:14:23Z</time>
      </trkpt>
      <trkpt lat="43.71752" lon="6.9643">
        <ele>774</ele>
        <time>2009-02-17T08:14:53Z</time>
      </trkpt>
      <trkpt lat="43.71687" lon="6.96516">
        <ele>778</ele>
        <time>2009-02-17T08:15:29Z</time>
      </trkpt>
      <trkpt lat="43.71621" lon="6.966">
        <ele>774</ele>
        <time>2009-02-17T08:15:52Z</time>
      </trkpt>
      <trkpt lat="43.71572" lon="6.96707">
        <ele>780</ele>
        <time>2009-02-17T08:16:18Z</time>
      </trkpt>
      <trkpt lat="43.71494" lon="6.9675">
        <ele>787</ele>
        <time>2009-02-17T08:16:58Z</time>
      </trkpt>
      <trkpt lat="43.71417" lon="6.96696">
        <ele>782</ele>
        <time>2009-02-17T08:17:27Z</time>
      </trkpt>
      <trkpt lat="43.71331" lon="6.96735">
        <ele>768</ele>
        <time>2009-02-17T08:17:46Z</time>
      </trkpt>
      <trkpt lat="43.71256" lon="6.96825">
        <ele>761</ele>
        <time>2009-02-17T08:18:06Z</time>
      </trkpt>
      <trkpt lat="43.71164" lon="6.9684">
        <ele>743</ele>
        <time>2009-02-17T08:18:22Z</time>
      </trkpt>
      <trkpt lat="43.71072" lon="6.96814">
        <ele>730</ele>
        <time>2009-02-17T08:18:36Z</time>
      </trkpt>
      <trkpt lat="43.70984" lon="6.96801">
        <ele>718</ele>
        <time>2009-02-17T08:18:51Z</time>
      </trkpt>
      <trkpt lat="43.70928" lon="6.96857">
        <ele>716</ele>
        <time>2009-02-17T08:19:09Z</time>
      </trkpt>
      <trkpt lat="43.70919" lon="6.9698">
        <ele>708</ele>
        <time>2009-02-17T08:19:30Z</time>
      </trkpt>
      <trkpt lat="43.709" lon="6.97089">
        <ele>698</ele>
        <time>2009-02-17T08:20:03Z</time>
      </trkpt>
      <trkpt lat="43.70874" lon="6.97201">
        <ele>685</ele>
        <time>2009-02-17T08:21:04Z</time>
      </trkpt>
      <trkpt lat="43.70806" lon="6.97293">
        <ele>671</ele>
        <time>2009-02-17T08:21:14Z</time>
      </trkpt>
      <trkpt lat="43.7078" lon="6.97419">
        <ele>668</ele>
        <time>2009-02-17T08:21:37Z</time>
      </trkpt>
      <trkpt lat="43.70715" lon="6.9751">
        <ele>656</ele>
        <time>2009-02-17T08:21:57Z</time>
      </trkpt>
      <trkpt lat="43.7063" lon="6.97563">
        <ele>653</ele>
        <time>2009-02-17T08:22:10Z</time>
      </trkpt>
      <trkpt lat="43.70574" lon="6.9749">
        <ele>637</ele>
        <time>2009-02-17T08:22:42Z</time>
      </trkpt>
      <trkpt lat="43.70488" lon="6.97475">
        <ele>622</ele>
        <time>2009-02-17T08:23:11Z</time>
      </trkpt>
      <trkpt lat="43.70443" lon="6.97422">
        <ele>610</ele>
        <time>2009-02-17T08:23:51Z</time>
      </trkpt>
      <trkpt lat="43.70357" lon="6.97415">
        <ele>594</ele>
        <time>2009-02-17T08:26:01Z</time>
      </trkpt>
      <trkpt lat="43.70286" lon="6.97407">
        <ele>588</ele>
        <time>2009-02-17T08:28:04Z</time>
      </trkpt>
      <trkpt lat="43.70273" lon="6.97284">
        <ele>572</ele>
        <time>2009-02-17T08:28:18Z</time>
      </trkpt>
      <trkpt lat="43.70267" lon="6.9716">
        <ele>559</ele>
        <time>2009-02-17T08:28:31Z</time>
      </trkpt>
      <trkpt lat="43.70241" lon="6.97265">
        <ele>544</ele>
        <time>2009-02-17T08:28:47Z</time>
      </trkpt>
      <trkpt lat="43.70226" lon="6.97192">
        <ele>530</ele>
        <time>2009-02-17T08:29:15Z</time>
      </trkpt>
      <trkpt lat="43.7023" lon="6.97252">
        <ele>541</ele>
        <time>2009-02-17T08:31:31Z</time>
      </trkpt>
      <trkpt lat="43.70248" lon="6.97207">
        <ele>554</ele>
        <time>2009-02-17T08:32:29Z</time>
      </trkpt>
      <trkpt lat="43.70265" lon="6.97235">
        <ele>570</ele>
        <time>2009-02-17T08:33:32Z</time>
      </trkpt>
      <trkpt lat="43.70267" lon="6.97361">
        <ele>583</ele>
        <time>2009-02-17T08:34:27Z</time>
      </trkpt>
      <trkpt lat="43.70329" lon="6.9743">
        <ele>591</ele>
        <time>2009-02-17T08:35:18Z</time>
      </trkpt>
      <trkpt lat="43.70269" lon="6.97366">
        <ele>580</ele>
        <time>2009-02-17T08:37:10Z</time>
      </trkpt>
      <trkpt lat="43.70265" lon="6.97231">
        <ele>566</ele>
        <time>2009-02-17T08:37:23Z</time>
      </trkpt>
      <trkpt lat="43.70245" lon="6.97231">
        <ele>546</ele>
        <time>2009-02-17T08:37:38Z</time>
      </trkpt>
      <trkpt lat="43.70233" lon="6.97267">
        <ele>540</ele>
        <time>2009-02-17T08:37:55Z</time>
      </trkpt>
      <trkpt lat="43.7022" lon="6.97246">
        <ele>528</ele>
        <time>2009-02-17T08:38:15Z</time>
      </trkpt>
      <trkpt lat="43.70188" lon="6.97364">
        <ele>507</ele>
        <time>2009-02-17T08:38:27Z</time>
      </trkpt>
      <trkpt lat="43.70153" lon="6.97473">
        <ele>504</ele>
        <time>2009-02-17T08:38:46Z</time>
      </trkpt>
      <trkpt lat="43.70149" lon="6.97602">
        <ele>503</ele>
        <time>2009-02-17T08:39:22Z</time>
      </trkpt>
      <trkpt lat="43.70181" lon="6.97724">
        <ele>506</ele>
        <time>2009-02-17T08:39:49Z</time>
      </trkpt>
      <trkpt lat="43.70203" lon="6.97844">
        <ele>506</ele>
        <time>2009-02-17T08:40:16Z</time>
      </trkpt>
      <trkpt lat="43.70205" lon="6.97977">
        <ele>505</ele>
        <time>2009-02-17T08:40:43Z</time>
      </trkpt>
      <trkpt lat="43.70248" lon="6.98093">
        <ele>504</ele>
        <time>2009-02-17T08:41:08Z</time>
      </trkpt>
      <trkpt lat="43.70252" lon="6.98224">
        <ele>504</ele>
        <time>2009-02-17T08:41:27Z</time>
      </trkpt>
      <trkpt lat="43.70252" lon="6.98342">
        <ele>506</ele>
        <time>2009-02-17T08:42:04Z</time>
      </trkpt>
      <trkpt lat="43.70301" lon="6.98402">
        <ele>504</ele>
        <time>2009-02-17T08:42:48Z</time>
      </trkpt>
      <trkpt lat="43.70348" lon="6.98387">
        <ele>496</ele>
        <time>2009-02-17T08:44:15Z</time>
      </trkpt>
      <trkpt lat="43.70331" lon="6.98518">
        <ele>448</ele>
        <time>2009-02-17T08:45:13Z</time>
      </trkpt>
      <trkpt lat="43.70413" lon="6.98539">
        <ele>427</ele>
        <time>2009-02-17T08:46:04Z</time>
      </trkpt>
      <trkpt lat="43.70505" lon="6.98494">
        <ele>425</ele>
        <time>2009-02-17T08:46:31Z</time>
      </trkpt>
      <trkpt lat="43.70595" lon="6.98441">
        <ele>426</ele>
        <time>2009-02-17T08:46:49Z</time>
      </trkpt>
      <trkpt lat="43.70666" lon="6.98349">
        <ele>426</ele>
        <time>2009-02-17T08:47:07Z</time>
      </trkpt>
      <trkpt lat="43.70756" lon="6.98299">
        <ele>421</ele>
        <time>2009-02-17T08:47:26Z</time>
      </trkpt>
      <trkpt lat="43.70737" lon="6.98338">
        <ele>412</ele>
        <time>2009-02-17T08:48:10Z</time>
      </trkpt>
      <trkpt lat="43.70672" lon="6.98443">
        <ele>404</ele>
        <time>2009-02-17T08:48:30Z</time>
      </trkpt>
      <trkpt lat="43.70647" lon="6.98572">
        <ele>380</ele>
        <time>2009-02-17T08:48:53Z</time>
      </trkpt>
      <trkpt lat="43.70589" lon="6.98673">
        <ele>370</ele>
        <time>2009-02-17T08:49:06Z</time>
      </trkpt>
      <trkpt lat="43.70535" lon="6.98778">
        <ele>361</ele>
        <time>2009-02-17T08:49:21Z</time>
      </trkpt>
      <trkpt lat="43.70531" lon="6.98864">
        <ele>337</ele>
        <time>2009-02-17T08:49:43Z</time>
      </trkpt>
      <trkpt lat="43.70436" lon="6.98857">
        <ele>331</ele>
        <time>2009-02-17T08:49:55Z</time>
      </trkpt>
      <trkpt lat="43.70342" lon="6.98864">
        <ele>328</ele>
        <time>2009-02-17T08:50:07Z</time>
      </trkpt>
      <trkpt lat="43.70254" lon="6.9887">
        <ele>333</ele>
        <time>2009-02-17T08:50:25Z</time>
      </trkpt>
      <trkpt lat="43.7017" lon="6.98864">
        <ele>336</ele>
        <time>2009-02-17T08:50:48Z</time>
      </trkpt>
      <trkpt lat="43.70117" lon="6.98891">
        <ele>340</ele>
        <time>2009-02-17T08:51:21Z</time>
      </trkpt>
      <trkpt lat="43.70061" lon="6.98788">
        <ele>333</ele>
        <time>2009-02-17T08:51:36Z</time>
      </trkpt>
      <trkpt lat="43.70059" lon="6.9887">
        <ele>321</ele>
        <time>2009-02-17T08:51:55Z</time>
      </trkpt>
      <trkpt lat="43.70091" lon="6.98986">
        <ele>318</ele>
        <time>2009-02-17T08:52:13Z</time>
      </trkpt>
      <trkpt lat="43.70121" lon="6.99091">
        <ele>318</ele>
        <time>2009-02-17T08:52:31Z</time>
      </trkpt>
      <trkpt lat="43.70085" lon="6.99018">
        <ele>318</ele>
        <time>2009-02-17T08:53:42Z</time>
      </trkpt>
      <trkpt lat="43.69988" lon="6.98939">
        <ele>302</ele>
        <time>2009-02-17T08:55:20Z</time>
      </trkpt>
      <trkpt lat="43.69898" lon="6.98928">
        <ele>287</ele>
        <time>2009-02-17T08:55:36Z</time>
      </trkpt>
      <trkpt lat="43.69851" lon="6.99016">
        <ele>264</ele>
        <time>2009-02-17T08:56:02Z</time>
      </trkpt>
      <trkpt lat="43.69803" lon="6.99093">
        <ele>238</ele>
        <time>2009-02-17T08:56:30Z</time>
      </trkpt>
      <trkpt lat="43.69715" lon="6.9913">
        <ele>221</ele>
        <time>2009-02-17T08:56:51Z</time>
      </trkpt>
      <trkpt lat="43.69662" lon="6.9919">
        <ele>210</ele>
        <time>2009-02-17T08:57:07Z</time>
      </trkpt>
      <trkpt lat="43.69578" lon="6.9922">
        <ele>184</ele>
        <time>2009-02-17T08:58:04Z</time>
      </trkpt>
      <trkpt lat="43.69507" lon="6.9931">
        <ele>176</ele>
        <time>2009-02-17T08:58:34Z</time>
      </trkpt>
      <trkpt lat="43.69454" lon="6.99413">
        <ele>175</ele>
        <time>2009-02-17T08:58:59Z</time>
      </trkpt>
      <trkpt lat="43.69531" lon="6.99484">
        <ele>167</ele>
        <time>2009-02-17T08:59:16Z</time>
      </trkpt>
      <trkpt lat="43.69589" lon="6.99481">
        <ele>174</ele>
        <time>2009-02-17T08:59:49Z</time>
      </trkpt>
      <trkpt lat="43.69597" lon="6.99464">
        <ele>178</ele>
        <time>2009-02-17T09:00:02Z</time>
      </trkpt>
    </trkseg>
  </trk>
</gpx>